Time;durP1;ratioP1;P1;durP2;ratioP2;P2;SDS_P1;SDS_P2;PMS_P1;PMS_P2;Temp;Humidity;BMP_temperature;BMP_pressure;BME280_temperature;BME280_humidity;BME280_pressure;Samples;Min_cycle;Max_cycle;Signal;HPM_P1;HPM_P2
2022/10/12 00:00:38;;;;;;;43.58;26.63;;;;;;;21.50;78.41;98713.47;4857644;29;20045;-72
2022/10/12 00:03:21;;;;;;;39.72;25.65;;;;;;;21.56;78.12;98716.97;4853789;29;20168;-71
2022/10/12 00:06:28;;;;;;;42.63;26.75;;;;;;;21.64;78.54;98719.09;4868876;29;20072;-72
2022/10/12 00:09:05;;;;;;;45.30;27.08;;;;;;;21.65;78.13;98709.81;4868655;29;20149;-72
2022/10/12 00:12:00;;;;;;;50.28;26.77;;;;;;;21.78;78.27;98715.69;4885188;29;20063;-72
2022/10/12 00:14:50;;;;;;;41.78;26.35;;;;;;;21.75;77.84;98719.00;4875151;29;20064;-71
2022/10/12 00:17:39;;;;;;;51.45;28.27;;;;;;;21.61;78.42;98718.84;4891893;29;20056;-72
2022/10/12 00:20:21;;;;;;;45.95;28.70;;;;;;;21.77;78.29;98716.81;4877135;29;20060;-71
2022/10/12 00:23:11;;;;;;;52.22;29.38;;;;;;;21.80;78.60;98727.97;4872849;29;20083;-71
2022/10/12 00:25:53;;;;;;;49.60;29.42;;;;;;;21.83;77.68;98727.38;4875125;29;20048;-72
2022/10/12 00:28:42;;;;;;;53.30;29.95;;;;;;;21.79;78.14;98725.53;4872480;29;20489;-72
2022/10/12 00:31:25;;;;;;;59.47;30.92;;;;;;;21.85;77.60;98729.84;4854702;29;20399;-72
2022/10/12 00:34:15;;;;;;;53.50;30.50;;;;;;;21.84;78.18;98734.50;4865332;29;20523;-71
2022/10/12 00:36:57;;;;;;;50.40;30.23;;;;;;;21.79;77.83;98750.09;4856167;29;20082;-71
2022/10/12 00:39:46;;;;;;;49.28;29.98;;;;;;;21.77;77.89;98738.66;4882313;29;20517;-71
2022/10/12 00:42:35;;;;;;;50.13;30.83;;;;;;;21.84;78.05;98745.41;4872452;29;20049;-71
2022/10/12 00:45:18;;;;;;;52.15;31.45;;;;;;;21.86;77.83;98742.41;4855534;29;20436;-71
2022/10/12 00:48:14;;;;;;;51.63;31.92;;;;;;;21.88;77.42;98748.41;4858076;29;20734;-73
2022/10/12 00:50:50;;;;;;;56.53;33.08;;;;;;;21.83;77.25;98745.69;4872439;29;20116;-72
2022/10/12 00:53:44;;;;;;;71.53;39.85;;;;;;;21.94;77.13;98747.25;4872581;29;20651;-71
2022/10/12 00:56:38;;;;;;;83.97;46.88;;;;;;;21.93;76.98;98744.78;4871576;29;20079;-71
2022/10/12 00:59:26;;;;;;;85.32;49.95;;;;;;;21.95;76.50;98746.13;4883073;29;20355;-72
2022/10/12 01:02:16;;;;;;;94.70;54.08;;;;;;;21.99;76.59;98744.47;4871444;29;20109;-71
2022/10/12 01:04:59;;;;;;;108.88;58.05;;;;;;;21.94;76.19;98762.81;4877088;29;20068;-72
2022/10/12 01:07:48;;;;;;;113.53;59.78;;;;;;;21.62;76.59;98762.25;4875863;29;20052;-72
2022/10/12 01:10:30;;;;;;;112.85;64.20;;;;;;;21.83;76.78;98762.09;4876107;29;20052;-72
2022/10/12 01:13:20;;;;;;;119.18;66.35;;;;;;;21.88;76.01;98764.78;4875945;29;20053;-71
2022/10/12 01:16:19;;;;;;;120.40;67.18;;;;;;;21.92;76.26;98765.84;4875824;29;20065;-72
2022/10/12 01:19:16;;;;;;;121.70;68.68;;;;;;;21.90;76.00;98770.78;4875555;29;20168;-72
2022/10/12 01:22:09;;;;;;;133.63;69.10;;;;;;;21.93;75.94;98770.19;4876407;29;20066;-72
2022/10/12 01:25:06;;;;;;;129.57;70.65;;;;;;;21.98;76.13;98775.59;4885601;29;20049;-71
2022/10/12 01:27:52;;;;;;;130.85;68.78;;;;;;;22.02;75.89;98784.84;4855549;29;20077;-72
2022/10/12 01:30:49;;;;;;;127.60;70.60;;;;;;;22.07;76.00;98786.75;4873496;29;20532;-72
2022/10/12 01:33:47;;;;;;;129.32;71.80;;;;;;;22.19;75.33;98791.81;4888983;29;20489;-71
2022/10/12 01:36:46;;;;;;;121.72;68.28;;;;;;;22.13;74.79;98807.47;4874579;29;20778;-72
2022/10/12 01:39:45;;;;;;;120.93;68.07;;;;;;;22.29;74.80;98808.16;4874118;29;20108;-72
2022/10/12 01:42:35;;;;;;;124.78;72.70;;;;;;;22.36;75.27;98816.81;4871774;29;20132;-72
2022/10/12 01:45:31;;;;;;;125.05;73.70;;;;;;;22.46;74.84;98813.16;4872662;29;20128;-73
2022/10/12 01:48:07;;;;;;;141.43;79.22;;;;;;;22.46;74.80;98819.44;4856505;29;20048;-72
2022/10/12 01:51:06;;;;;;;142.55;82.03;;;;;;;22.51;74.58;98823.22;4859525;29;20116;-71
2022/10/12 01:53:58;;;;;;;137.80;79.23;;;;;;;22.76;73.58;98817.50;4857580;29;20052;-73
2022/10/12 01:57:03;;;;;;;139.45;80.45;;;;;;;22.61;74.53;98817.66;4874006;29;20836;-72
2022/10/12 02:00:12;;;;;;;141.43;81.03;;;;;;;22.58;74.45;98826.44;4874020;29;20057;-72
2022/10/12 02:03:21;;;;;;;142.40;81.38;;;;;;;22.65;73.81;98835.94;4875163;29;20604;-71
2022/10/12 02:06:12;;;;;;;139.60;80.70;;;;;;;22.73;74.16;98831.72;4877815;29;20109;-72
2022/10/12 02:09:10;;;;;;;147.07;80.80;;;;;;;22.81;73.99;98836.56;4875837;29;20053;-73
2022/10/12 02:11:56;;;;;;;137.75;79.63;;;;;;;22.86;73.47;98836.50;4857216;29;20049;-71
2022/10/12 02:14:50;;;;;;;134.73;77.13;;;;;;;23.14;71.81;98831.28;4856235;29;20049;-72
2022/10/12 02:17:32;;;;;;;133.20;74.97;;;;;;;23.32;71.80;98837.06;4839873;29;20057;-72
2022/10/12 02:20:30;;;;;;;132.95;73.57;;;;;;;23.36;71.38;98832.63;4858631;29;20064;-72
2022/10/12 02:23:08;;;;;;;124.90;69.38;;;;;;;23.39;70.86;98843.00;4856148;29;20085;-72
2022/10/12 02:26:08;;;;;;;133.27;68.00;;;;;;;23.45;71.11;98841.81;4855630;29;20060;-72
2022/10/12 02:28:44;;;;;;;119.82;64.25;;;;;;;23.53;70.39;98854.84;4875214;29;20525;-72
2022/10/12 02:32:02;;;;;;;106.38;57.92;;;;;;;23.68;69.87;98856.53;4867672;29;20155;-72
2022/10/12 02:34:46;;;;;;;112.82;61.00;;;;;;;23.69;70.83;98866.38;4842447;29;20056;-72
2022/10/12 02:38:07;;;;;;;120.80;62.92;;;;;;;23.84;71.00;98857.94;4873107;29;20098;-73
2022/10/12 02:40:51;;;;;;;126.53;69.13;;;;;;;24.08;69.69;98864.47;4873941;29;20311;-72
2022/10/12 02:44:05;;;;;;;152.00;75.32;;;;;;;23.99;69.20;98873.34;4860176;29;20052;-72
2022/10/12 02:46:55;;;;;;;;;;;;;;;24.33;68.13;98872.25;4874893;29;20148;-72
2022/10/12 02:49:46;;;;;;;149.98;74.22;;;;;;;24.22;69.36;98879.00;4874503;29;19967;-72
2022/10/12 02:52:37;;;;;;;155.35;75.53;;;;;;;23.90;65.64;98880.59;4873119;29;20163;-71
2022/10/12 02:55:28;;;;;;;145.88;73.60;;;;;;;24.29;65.83;98882.19;4857459;29;20064;-72
2022/10/12 02:58:17;;;;;;;109.72;58.40;;;;;;;24.28;65.12;98885.22;4859906;29;20084;-73
2022/10/12 03:01:06;;;;;;;97.90;50.13;;;;;;;24.36;66.19;98885.38;4828673;29;20493;-72
2022/10/12 03:03:55;;;;;;;75.18;41.67;;;;;;;24.38;65.63;98891.38;4873736;29;20076;-73
2022/10/12 03:06:37;;;;;;;49.83;28.05;;;;;;;24.39;63.85;98892.97;4875098;29;20049;-72
2022/10/12 03:09:26;;;;;;;48.65;26.08;;;;;;;24.57;66.65;98895.97;4888349;29;20073;-72
2022/10/12 03:12:15;;;;;;;36.90;20.92;;;;;;;24.37;64.44;98903.44;4888019;29;20443;-72
2022/10/12 03:15:04;;;;;;;42.78;20.38;;;;;;;24.71;63.27;98905.06;4876311;29;20496;-71
2022/10/12 03:17:59;;;;;;;33.17;17.20;;;;;;;24.44;60.37;98908.53;4873748;29;20372;-71
2022/10/12 03:20:35;;;;;;;34.40;17.80;;;;;;;24.61;61.96;98917.03;4873614;29;20060;-73
2022/10/12 03:23:24;;;;;;;32.25;16.23;;;;;;;25.02;62.54;98916.28;4874719;29;20052;-72
2022/10/12 03:26:06;;;;;;;35.75;17.83;;;;;;;25.08;64.01;98919.72;4858075;29;20061;-72
2022/10/12 03:29:02;;;;;;;41.00;19.88;;;;;;;25.22;61.50;98919.72;4872854;29;20056;-72
2022/10/12 03:31:39;;;;;;;40.78;23.27;;;;;;;25.08;60.70;98918.94;4840901;29;20084;-71
2022/10/12 03:34:34;;;;;;;57.50;25.95;;;;;;;24.89;58.94;98922.56;4854073;29;20125;-70
2022/10/12 03:37:10;;;;;;;47.33;25.13;;;;;;;25.38;62.62;98925.75;4872527;29;20056;-71
2022/10/12 03:40:04;;;;;;;57.25;28.88;;;;;;;25.51;60.53;98926.84;4889335;29;20056;-71
2022/10/12 03:42:40;;;;;;;54.63;29.35;;;;;;;25.77;60.35;98924.34;4891505;29;20056;-71
2022/10/12 03:45:35;;;;;;;59.60;31.50;;;;;;;25.84;58.88;98924.75;4872168;29;20113;-71
2022/10/12 03:48:11;;;;;;;67.75;32.38;;;;;;;25.87;61.80;98928.81;4856736;29;20454;-71
2022/10/12 03:51:00;;;;;;;100.55;35.30;;;;;;;26.14;59.68;98926.00;4872754;29;20116;-72
2022/10/12 03:53:49;;;;;;;62.13;33.28;;;;;;;26.18;60.51;98931.69;4873045;29;20037;-71
2022/10/12 03:56:31;;;;;;;60.97;32.10;;;;;;;25.96;58.58;98932.47;4840903;29;20074;-72
2022/10/12 03:59:20;;;;;;;67.47;32.10;;;;;;;26.21;59.76;98936.56;4856390;29;20053;-72
2022/10/12 04:02:02;;;;;;;71.50;29.90;;;;;;;26.28;54.48;98928.69;4856741;29;20049;-72
2022/10/12 04:04:56;;;;;;;55.85;29.52;;;;;;;26.68;54.11;98936.25;4843980;29;20057;-72
2022/10/12 04:07:45;;;;;;;55.63;29.15;;;;;;;26.90;54.05;98938.97;4872929;29;20053;-72
2022/10/12 04:10:34;;;;;;;59.20;29.90;;;;;;;27.34;52.44;98937.22;4856300;29;20081;-72
2022/10/12 04:13:17;;;;;;;56.60;28.65;;;;;;;27.88;53.34;98936.19;4872097;29;20116;-72
2022/10/12 04:16:11;;;;;;;60.05;30.95;;;;;;;28.12;54.56;98942.03;4858461;29;20067;-72
2022/10/12 04:19:00;;;;;;;56.05;29.58;;;;;;;28.30;52.35;98934.59;4875762;29;20458;-70
2022/10/12 04:21:49;;;;;;;57.08;29.08;;;;;;;28.64;54.14;98955.03;4873194;29;20068;-73
2022/10/12 04:24:31;;;;;;;51.30;26.33;;;;;;;28.51;48.68;98950.47;4871858;29;20056;-70
2022/10/12 04:27:20;;;;;;;51.80;27.08;;;;;;;29.30;51.73;98953.03;4874435;29;20351;-72
2022/10/12 04:30:02;;;;;;;43.35;22.67;;;;;;;28.97;48.66;98953.59;4880287;29;20274;-73
2022/10/12 04:32:51;;;;;;;40.30;20.98;;;;;;;28.97;45.89;98954.44;4872635;29;20064;-72
2022/10/12 04:35:33;;;;;;;35.28;20.58;;;;;;;29.44;47.52;98962.69;4855720;29;20053;-73
2022/10/12 04:38:22;;;;;;;38.75;21.55;;;;;;;29.48;45.00;98955.38;4855422;29;20065;-72
2022/10/12 04:41:05;;;;;;;38.25;20.73;;;;;;;29.45;44.82;98955.22;4855418;29;20049;-73
2022/10/12 04:43:53;;;;;;;41.53;21.52;;;;;;;29.73;45.68;98958.34;4871078;29;20053;-72
2022/10/12 04:46:35;;;;;;;41.92;22.15;;;;;;;29.88;48.29;98956.91;4871430;29;20057;-73
2022/10/12 04:49:24;;;;;;;48.78;25.05;;;;;;;30.18;43.56;98959.63;4871281;29;20061;-73
2022/10/12 04:52:06;;;;;;;47.25;26.65;;;;;;;30.64;43.64;98961.31;4871130;29;20152;-72
2022/10/12 04:54:55;;;;;;;57.22;29.70;;;;;;;29.66;45.26;98961.59;4874245;29;20087;-70
2022/10/12 04:57:37;;;;;;;54.38;31.63;;;;;;;30.07;49.99;98964.75;4871946;29;20113;-73
2022/10/12 05:00:26;;;;;;;55.42;32.33;;;;;;;30.13;46.51;98965.38;4841348;29;20060;-73
2022/10/12 05:03:21;;;;;;;55.92;29.83;;;;;;;29.70;44.77;98961.75;4884851;29;20057;-72
2022/10/12 05:06:03;;;;;;;51.95;30.33;;;;;;;30.69;43.45;98962.25;4846279;29;20049;-74
2022/10/12 05:08:52;;;;;;;56.28;30.90;;;;;;;30.05;43.01;98961.50;4852721;29;20049;-71
2022/10/12 05:11:34;;;;;;;52.10;30.10;;;;;;;30.80;47.08;98966.22;4852394;29;20113;-70
2022/10/12 05:14:23;;;;;;;60.50;32.25;;;;;;;30.49;49.55;98958.41;4871627;29;20120;-74
2022/10/12 05:17:05;;;;;;;58.28;29.42;;;;;;;31.31;46.37;98961.22;4860007;29;20053;-72
2022/10/12 05:19:54;;;;;;;55.78;29.30;;;;;;;30.86;44.66;98955.72;4837924;29;20050;-73
2022/10/12 05:22:36;;;;;;;56.38;27.52;;;;;;;31.30;41.31;98947.69;4820271;29;20050;-71
2022/10/12 05:25:28;;;;;;;54.85;28.85;;;;;;;30.48;41.75;98946.53;4834971;29;20057;-73
2022/10/12 05:28:10;;;;;;;57.75;30.65;;;;;;;30.75;44.41;98939.53;4834840;29;20150;-71
2022/10/12 05:30:59;;;;;;;62.03;31.77;;;;;;;31.12;41.50;98947.13;4849619;29;20065;-72
2022/10/12 05:33:41;;;;;;;56.25;30.98;;;;;;;31.34;45.24;98940.34;4849840;29;20082;-71
2022/10/12 05:36:30;;;;;;;54.28;28.83;;;;;;;30.99;43.44;98946.31;4870699;29;20074;-71
2022/10/12 05:39:12;;;;;;;51.28;27.90;;;;;;;31.02;41.73;98948.41;4855658;29;20161;-71
2022/10/12 05:42:01;;;;;;;53.08;26.98;;;;;;;31.56;42.95;98945.41;4853342;29;20117;-72
2022/10/12 05:44:43;;;;;;;41.75;24.77;;;;;;;30.87;43.54;98940.72;4837975;29;20615;-71
2022/10/12 05:47:32;;;;;;;44.85;25.75;;;;;;;30.87;41.79;98941.53;4849197;29;20056;-72
2022/10/12 05:50:29;;;;;;;44.63;25.10;;;;;;;31.44;42.86;98942.63;4822786;29;20057;-73
2022/10/12 05:53:05;;;;;;;41.40;25.13;;;;;;;31.14;42.30;98942.03;4840722;29;20085;-71
2022/10/12 05:56:05;;;;;;;45.47;24.38;;;;;;;31.18;41.44;98929.09;4849532;29;20054;-71
2022/10/12 05:58:41;;;;;;;47.53;24.30;;;;;;;31.50;43.72;98940.47;4849462;29;20046;-72
2022/10/12 06:01:30;;;;;;;38.47;22.00;;;;;;;31.73;42.14;98936.03;4855593;29;20058;-72
2022/10/12 06:04:19;;;;;;;44.35;22.23;;;;;;;31.54;41.73;98930.28;4855120;29;20050;-71
2022/10/12 06:07:01;;;;;;;40.97;21.45;;;;;;;31.18;47.32;98929.94;4892561;29;20045;-70
2022/10/12 06:09:50;;;;;;;46.50;23.75;;;;;;;31.19;46.61;98920.44;4864028;29;20045;-70
2022/10/12 06:12:32;;;;;;;35.42;21.23;;;;;;;30.82;46.75;98922.34;4861832;29;20084;-71
2022/10/12 06:15:21;;;;;;;41.05;21.63;;;;;;;31.37;45.19;98921.00;4859097;29;20057;-74
2022/10/12 06:18:03;;;;;;;40.67;22.35;;;;;;;30.74;45.43;98921.28;4857517;29;20049;-74
2022/10/12 06:20:54;;;;;;;46.50;23.58;;;;;;;31.27;46.83;98927.03;4870150;29;20049;-75
2022/10/12 06:23:56;;;;;;;43.42;21.95;;;;;;;31.60;43.20;98918.63;4869937;29;20045;-74
2022/10/12 06:26:45;;;;;;;35.42;20.48;;;;;;;30.23;42.46;98915.94;4888169;29;20048;-74
2022/10/12 06:29:27;;;;;;;39.20;19.85;;;;;;;31.41;42.00;98916.41;4874315;29;20260;-73
2022/10/12 06:32:16;;;;;;;30.05;17.10;;;;;;;31.53;47.02;98912.03;4859897;29;20421;-74
2022/10/12 06:34:58;;;;;;;27.88;18.08;;;;;;;31.06;39.57;98899.44;4875438;29;20081;-73
2022/10/12 06:37:54;;;;;;;27.17;15.80;;;;;;;31.14;39.66;98894.91;4875515;29;20084;-74
2022/10/12 06:40:36;;;;;;;29.25;14.85;;;;;;;31.27;42.31;98895.72;4876228;29;20060;-74
2022/10/12 06:43:26;;;;;;;29.52;14.98;;;;;;;31.58;45.41;98886.81;4896078;29;20063;-75
2022/10/12 06:46:08;;;;;;;;;;;;;;;31.94;41.78;98885.09;4894713;29;20053;-74
2022/10/12 06:48:57;;;;;;;30.48;14.13;;;;;;;31.05;41.45;98885.91;4888613;29;19924;-74
2022/10/12 06:51:39;;;;;;;24.88;13.18;;;;;;;30.88;39.25;98887.72;4873493;29;20068;-75
2022/10/12 06:54:28;;;;;;;23.25;13.25;;;;;;;31.39;46.42;98879.91;4873861;29;20067;-75
2022/10/12 06:57:10;;;;;;;21.65;11.63;;;;;;;31.07;38.98;98876.09;4873753;29;20053;-74
2022/10/12 06:59:59;;;;;;;19.35;12.13;;;;;;;31.55;42.57;98868.09;4873811;29;20060;-75
2022/10/12 07:02:41;;;;;;;20.90;10.68;;;;;;;31.47;38.94;98860.72;4865848;29;20047;-74
2022/10/12 07:05:37;;;;;;;20.90;11.70;;;;;;;31.67;43.67;98865.28;4855171;29;20064;-74
2022/10/12 07:08:26;;;;;;;23.23;10.52;;;;;;;31.82;39.15;98858.19;4854123;29;20096;-74
2022/10/12 07:11:18;;;;;;;20.77;9.60;;;;;;;31.58;39.70;98853.50;4855267;29;20057;-74
2022/10/12 07:14:00;;;;;;;18.50;9.20;;;;;;;31.64;39.47;98851.31;4856206;29;20049;-75
2022/10/12 07:16:50;;;;;;;12.32;8.35;;;;;;;31.68;43.77;98850.28;4855785;29;20053;-75
2022/10/12 07:19:38;;;;;;;13.65;8.85;;;;;;;31.90;43.91;98848.91;4855101;29;20435;-74
2022/10/12 07:22:27;;;;;;;25.83;8.75;;;;;;;31.71;41.91;98845.97;4875296;29;20125;-74
2022/10/12 07:25:09;;;;;;;16.35;8.48;;;;;;;31.82;38.82;98840.75;4873600;29;20057;-73
2022/10/12 07:27:58;;;;;;;17.08;9.02;;;;;;;30.90;39.99;98841.13;4859789;29;20631;-75
2022/10/12 07:30:35;;;;;;;16.70;8.70;;;;;;;31.52;44.23;98827.19;4872025;29;20761;-75
2022/10/12 07:33:30;;;;;;;22.25;10.63;;;;;;;31.68;42.33;98818.91;4873058;29;20116;-76
2022/10/12 07:36:07;;;;;;;20.95;12.32;;;;;;;31.62;43.91;98821.13;4873709;29;20049;-75
2022/10/12 07:39:07;;;;;;;26.40;15.25;;;;;;;31.41;38.44;98813.78;4873839;29;20494;-75
2022/10/12 07:41:43;;;;;;;27.23;15.00;;;;;;;31.63;39.82;98810.88;4866353;29;20048;-75
2022/10/12 07:44:32;;;;;;;31.60;16.33;;;;;;;31.27;38.78;98807.81;4891972;29;20048;-72
2022/10/12 07:47:21;;;;;;;37.70;21.45;;;;;;;31.37;42.00;98804.53;4891641;29;20052;-73
2022/10/12 07:50:03;;;;;;;46.20;25.50;;;;;;;31.34;39.84;98798.91;4892366;29;20104;-73
2022/10/12 07:52:52;;;;;;;47.60;27.88;;;;;;;31.35;39.79;98804.06;4891753;29;20547;-72
2022/10/12 07:55:34;;;;;;;61.53;29.25;;;;;;;31.66;41.96;98797.06;4891592;29;20053;-71
2022/10/12 07:58:23;;;;;;;50.70;27.33;;;;;;;31.88;42.34;98792.16;4883372;29;20079;-72
2022/10/12 08:01:06;;;;;;;46.90;28.15;;;;;;;31.81;41.56;98781.63;4872740;29;20140;-73
2022/10/12 08:03:56;;;;;;;53.20;29.67;;;;;;;31.69;41.46;98785.28;4873323;29;20049;-73
2022/10/12 08:06:51;;;;;;;49.50;24.83;;;;;;;31.92;42.00;98768.06;4872300;29;20049;-72
2022/10/12 08:09:46;;;;;;;45.30;22.92;;;;;;;31.71;40.28;98763.53;4873105;29;20052;-73
2022/10/12 08:12:22;;;;;;;41.25;19.40;;;;;;;31.98;41.59;98755.53;4872397;29;20071;-72
2022/10/12 08:15:19;;;;;;;32.85;17.63;;;;;;;31.84;39.34;98744.06;4873095;29;20049;-73
2022/10/12 08:17:55;;;;;;;32.90;16.55;;;;;;;31.78;39.59;98747.09;4872580;29;20053;-73
2022/10/12 08:20:50;;;;;;;28.33;14.60;;;;;;;31.51;38.32;98736.78;4872879;29;20604;-74
2022/10/12 08:23:26;;;;;;;26.95;13.38;;;;;;;31.59;40.98;98727.53;4874166;29;20077;-73
2022/10/12 08:26:15;;;;;;;22.55;11.23;;;;;;;31.61;38.03;98728.78;4872899;29;20533;-73
2022/10/12 08:29:04;;;;;;;23.92;12.55;;;;;;;31.89;39.86;98722.41;4858869;29;20060;-74
2022/10/12 08:31:49;;;;;;;20.90;9.95;;;;;;;31.96;40.22;98714.25;4872956;29;20045;-73
2022/10/12 08:34:38;;;;;;;19.95;9.43;;;;;;;31.46;39.15;98712.09;4875689;29;20049;-74
2022/10/12 08:37:20;;;;;;;21.90;9.25;;;;;;;31.73;40.34;98710.47;4885598;29;20060;-73
2022/10/12 08:40:09;;;;;;;24.02;12.90;;;;;;;31.58;38.21;98710.06;4853973;29;20065;-73
2022/10/12 08:43:10;;;;;;;24.52;11.15;;;;;;;31.76;39.46;98709.75;4889406;29;20048;-73
2022/10/12 08:46:06;;;;;;;24.08;11.25;;;;;;;31.94;39.16;98704.69;4891150;29;20056;-74
2022/10/12 08:48:57;;;;;;;16.00;9.85;;;;;;;32.19;39.32;98703.34;4890162;29;20044;-73
2022/10/12 08:51:55;;;;;;;19.17;11.32;;;;;;;31.83;39.72;98706.34;4875063;29;20059;-73
2022/10/12 08:54:42;;;;;;;21.15;12.18;;;;;;;31.38;39.38;98702.75;4853976;29;20056;-73
2022/10/12 08:57:31;;;;;;;17.42;11.70;;;;;;;31.36;39.14;98694.78;4854934;29;20054;-74
2022/10/12 09:00:15;;;;;;;23.55;11.68;;;;;;;31.36;38.92;98688.44;4872290;29;20065;-73
2022/10/12 09:03:16;;;;;;;19.35;11.45;;;;;;;31.60;39.09;98691.13;4872447;29;20068;-73
2022/10/12 09:06:15;;;;;;;18.48;11.32;;;;;;;31.48;38.05;98684.81;4871535;29;20072;-72
2022/10/12 09:09:41;;;;;;;22.95;11.57;;;;;;;31.84;39.04;98675.47;4872336;29;20089;-73
2022/10/12 09:12:57;;;;;;;20.95;11.98;;;;;;;31.34;38.98;98669.38;4874641;29;20053;-72
2022/10/12 09:15:50;;;;;;;26.70;12.57;;;;;;;31.71;38.63;98668.41;4873596;29;20734;-75
2022/10/12 09:18:46;;;;;;;22.35;13.38;;;;;;;31.31;40.92;98661.75;4873558;29;20164;-73
2022/10/12 09:21:31;;;;;;;21.88;13.90;;;;;;;31.46;40.57;98662.16;4872033;29;20077;-73
2022/10/12 09:24:31;;;;;;;21.60;13.23;;;;;;;31.79;40.77;98659.88;4873330;29;20076;-73
2022/10/12 09:27:19;;;;;;;21.58;13.43;;;;;;;31.87;40.57;98648.97;4875774;29;20065;-73
2022/10/12 09:30:10;;;;;;;34.15;13.23;;;;;;;31.82;41.12;98652.03;4859176;29;20045;-73
2022/10/12 09:33:09;;;;;;;20.17;12.65;;;;;;;31.35;41.58;98654.34;4874086;29;20060;-73
2022/10/12 09:36:00;;;;;;;19.38;13.82;;;;;;;31.36;42.09;98653.19;4877684;29;20052;-74
2022/10/12 09:38:42;;;;;;;24.63;13.95;;;;;;;31.73;42.17;98650.22;4875625;29;20517;-73
2022/10/12 09:41:45;;;;;;;18.90;14.05;;;;;;;31.62;41.38;98643.59;4882712;29;20072;-74
2022/10/12 09:44:33;;;;;;;20.13;13.60;;;;;;;31.42;41.57;98646.22;4893609;29;20063;-72
2022/10/12 09:47:28;;;;;;;21.13;12.82;;;;;;;31.48;41.71;98640.44;4893650;29;20053;-73
2022/10/12 09:50:11;;;;;;;20.48;13.82;;;;;;;31.68;42.75;98636.63;4893383;29;20060;-72
2022/10/12 09:53:00;;;;;;;23.02;14.00;;;;;;;31.45;42.90;98638.34;4894613;29;20389;-73
2022/10/12 09:56:54;;;;;;;40.63;13.88;;;;;;;31.63;43.59;98634.13;4893989;29;20044;-73
2022/10/12 09:59:35;;;;;;;22.75;13.32;;;;;;;31.48;42.93;98626.59;4842811;29;20045;-73
2022/10/12 10:02:26;;;;;;;25.85;13.95;;;;;;;31.46;43.73;98624.16;4875056;29;20057;-72
2022/10/12 10:05:33;;;;;;;25.15;13.73;;;;;;;31.16;43.70;98618.16;4856305;29;20092;-73
2022/10/12 10:08:21;;;;;;;26.10;13.55;;;;;;;31.53;43.39;98618.81;4836967;29;20050;-72
2022/10/12 10:11:11;;;;;;;22.55;13.88;;;;;;;31.53;44.43;98615.22;4837337;29;20050;-71
2022/10/12 10:14:07;;;;;;;44.13;14.70;;;;;;;31.22;44.50;98613.97;4824409;29;20078;-71
2022/10/12 10:16:50;;;;;;;21.33;14.05;;;;;;;31.30;44.35;98610.25;4836755;29;20064;-72
2022/10/12 10:19:39;;;;;;;18.67;14.02;;;;;;;31.03;43.79;98607.13;4850829;29;20053;-72
2022/10/12 10:22:22;;;;;;;19.70;13.73;;;;;;;31.35;44.19;98600.84;4856258;29;20053;-72
2022/10/12 10:25:26;;;;;;;27.48;14.98;;;;;;;31.01;44.17;98601.16;4842258;29;20679;-72
2022/10/12 10:28:26;;;;;;;20.08;14.10;;;;;;;31.20;44.57;98599.66;4855607;29;20538;-72
2022/10/12 10:31:28;;;;;;;19.48;13.35;;;;;;;31.33;45.38;98608.72;4856344;29;20061;-72
2022/10/12 10:34:21;;;;;;;20.23;14.27;;;;;;;31.43;43.76;98602.63;4856133;29;20068;-73
2022/10/12 10:37:27;;;;;;;30.42;15.55;;;;;;;31.20;44.75;98599.66;4855684;29;20053;-73
2022/10/12 10:40:04;;;;;;;27.08;15.32;;;;;;;30.79;44.49;98598.88;4857702;29;20050;-73
2022/10/12 10:43:08;;;;;;;23.88;16.48;;;;;;;31.19;45.87;98593.31;4873944;29;20061;-73
2022/10/12 10:45:57;;;;;;;22.55;15.18;;;;;;;30.95;46.85;98594.22;4874671;29;20065;-72
2022/10/12 10:49:40;;;;;;;35.75;16.98;;;;;;;30.49;46.97;98601.94;4855613;29;20049;-73
2022/10/12 10:52:24;;;;;;;29.45;16.90;;;;;;;30.40;47.55;98601.28;4809465;29;20064;-73
2022/10/12 10:55:27;;;;;;;25.48;15.68;;;;;;;30.73;46.66;98589.22;4857976;29;20485;-72
2022/10/12 10:58:29;;;;;;;23.30;16.38;;;;;;;30.80;46.27;98587.47;4854580;29;20049;-72
2022/10/12 11:01:33;;;;;;;29.88;16.98;;;;;;;30.84;47.88;98584.78;4854426;29;20477;-73
2022/10/12 11:04:32;;;;;;;29.02;16.90;;;;;;;30.81;47.18;98588.25;4855310;29;20501;-73
2022/10/12 11:07:29;;;;;;;25.98;16.83;;;;;;;30.46;46.73;98580.53;4865677;29;20053;-71
2022/10/12 11:10:32;;;;;;;28.23;15.65;;;;;;;30.34;46.92;98589.63;4857381;29;20048;-73
2022/10/12 11:13:30;;;;;;;30.07;16.73;;;;;;;30.57;46.36;98584.41;4873847;29;20137;-71
2022/10/12 11:16:23;;;;;;;24.95;15.98;;;;;;;30.76;46.69;98583.75;4873780;29;20048;-73
2022/10/12 11:19:41;;;;;;;37.22;17.55;;;;;;;30.28;47.77;98587.44;4873240;29;20140;-74
2022/10/12 11:22:45;;;;;;;28.55;17.20;;;;;;;30.44;48.00;98569.00;4858161;29;20560;-71
2022/10/12 11:25:48;;;;;;;35.97;18.05;;;;;;;30.06;47.78;98576.50;4873937;29;20080;-72
2022/10/12 11:28:44;;;;;;;34.38;16.70;;;;;;;30.21;48.68;98583.28;4873270;29;20581;-70
2022/10/12 11:31:51;;;;;;;27.30;14.65;;;;;;;30.29;48.57;98584.31;4873472;29;20133;-72
2022/10/12 11:34:58;;;;;;;26.25;16.40;;;;;;;30.05;48.01;98579.59;4872345;29;20068;-72
2022/10/12 11:37:47;;;;;;;25.45;15.80;;;;;;;30.32;47.63;98580.88;4875944;29;20053;-73
2022/10/12 11:40:50;;;;;;;27.80;16.27;;;;;;;30.01;49.15;98576.72;4876577;29;20052;-72
2022/10/12 11:44:27;;;;;;;27.30;15.75;;;;;;;30.05;48.98;98585.13;4877229;29;20045;-70
2022/10/12 11:47:46;;;;;;;36.42;18.38;;;;;;;29.99;49.48;98581.00;4872115;29;20053;-71
2022/10/12 11:50:47;;;;;;;39.58;19.05;;;;;;;29.86;49.79;98578.22;4873320;29;20053;-72
2022/10/12 11:54:15;;;;;;;27.13;16.73;;;;;;;29.81;49.43;98578.47;4861322;29;20137;-72
2022/10/12 11:56:56;;;;;;;29.80;17.25;;;;;;;29.85;50.50;98576.63;4873400;29;20078;-71
2022/10/12 12:00:06;;;;;;;30.17;16.80;;;;;;;29.73;50.82;98582.16;4874590;29;20150;-72
2022/10/12 12:02:51;;;;;;;29.87;16.60;;;;;;;29.57;50.56;98586.72;4873197;29;20795;-74
2022/10/12 12:05:46;;;;;;;27.50;17.58;;;;;;;29.50;50.49;98590.03;4873297;29;20346;-74
2022/10/12 12:08:40;;;;;;;23.73;16.25;;;;;;;29.80;51.28;98579.59;4871757;29;20049;-75
2022/10/12 12:11:32;;;;;;;33.65;17.65;;;;;;;29.71;50.92;98586.38;4872529;29;20405;-74
2022/10/12 12:14:20;;;;;;;25.80;15.95;;;;;;;29.75;52.14;98588.16;4871838;29;20057;-75
2022/10/12 12:17:26;;;;;;;26.53;17.60;;;;;;;29.66;51.71;98581.88;4533856;29;10000174;-76
2022/10/12 12:20:48;;;;;;;25.10;16.38;;;;;;;29.54;52.83;98587.38;4870258;29;20053;-72
2022/10/12 12:23:56;;;;;;;31.40;17.20;;;;;;;29.44;53.81;98586.69;4798893;29;20051;-75
2022/10/12 12:26:46;;;;;;;33.33;18.20;;;;;;;29.34;54.17;98587.13;4875945;29;20488;-74
2022/10/12 12:29:35;;;;;;;42.20;18.75;;;;;;;29.28;54.40;98580.22;4868054;29;20048;-72
2022/10/12 12:32:18;;;;;;;43.42;22.92;;;;;;;29.26;53.97;98583.31;4869458;29;20541;-76
2022/10/12 12:35:07;;;;;;;37.63;22.20;;;;;;;29.27;54.88;98584.94;4872221;29;20061;-71
2022/10/12 12:38:02;;;;;;;46.25;25.05;;;;;;;29.18;55.35;98586.19;4855533;29;20055;-72
2022/10/12 12:41:16;;;;;;;39.92;23.38;;;;;;;29.18;55.28;98589.75;4857773;29;20053;-73
2022/10/12 12:44:03;;;;;;;44.50;25.40;;;;;;;29.01;56.61;98587.13;4881463;29;20072;-73
2022/10/12 12:47:00;;;;;;;49.33;23.30;;;;;;;29.03;56.12;98591.16;4866751;29;20049;-75
2022/10/12 12:49:56;;;;;;;34.72;21.48;;;;;;;28.99;56.57;98594.94;4870761;29;20052;-74
2022/10/12 12:52:46;;;;;;;32.88;20.35;;;;;;;28.81;56.77;98594.28;4851624;29;20050;-71
2022/10/12 12:55:56;;;;;;;40.00;21.02;;;;;;;28.85;57.51;98597.97;4852512;29;20382;-73
2022/10/12 12:58:57;;;;;;;50.90;20.80;;;;;;;28.77;56.32;98598.84;4868924;29;20643;-71
2022/10/12 13:02:01;;;;;;;43.90;21.10;;;;;;;28.69;58.33;98597.78;4870339;29;20064;-71
2022/10/12 13:05:01;;;;;;;38.15;20.92;;;;;;;28.73;58.53;98603.44;4861706;29;20156;-72
2022/10/12 13:08:06;;;;;;;33.78;19.83;;;;;;;28.91;57.01;98610.44;4573506;29;9185348;-70